sensor_id;sensor_type;location;lat;lon;timestamp;P1;durP1;ratioP1;P2;durP2;ratioP2
21507;SDS011;10915;54.352;9.074;2022-10-16T00:01:17;8.87;;;2.70;;
21507;SDS011;10915;54.352;9.074;2022-10-16T00:03:45;10.87;;;3.07;;
21507;SDS011;10915;54.352;9.074;2022-10-16T00:06:12;7.90;;;2.63;;
21507;SDS011;10915;54.352;9.074;2022-10-16T00:08:39;9.00;;;2.70;;
21507;SDS011;10915;54.352;9.074;2022-10-16T00:13:35;8.83;;;2.83;;
21507;SDS011;10915;54.352;9.074;2022-10-16T00:16:01;6.37;;;2.80;;
21507;SDS011;10915;54.352;9.074;2022-10-16T00:18:28;6.57;;;2.80;;
21507;SDS011;10915;54.352;9.074;2022-10-16T00:20:54;6.77;;;2.93;;
21507;SDS011;10915;54.352;9.074;2022-10-16T00:23:20;9.77;;;2.63;;
21507;SDS011;10915;54.352;9.074;2022-10-16T00:25:59;8.90;;;3.23;;
21507;SDS011;10915;54.352;9.074;2022-10-16T00:28:28;10.83;;;3.23;;
21507;SDS011;10915;54.352;9.074;2022-10-16T00:30:54;13.10;;;3.30;;
21507;SDS011;10915;54.352;9.074;2022-10-16T00:33:20;10.97;;;3.10;;
21507;SDS011;10915;54.352;9.074;2022-10-16T00:35:46;10.63;;;3.07;;
21507;SDS011;10915;54.352;9.074;2022-10-16T00:38:12;6.07;;;2.50;;
21507;SDS011;10915;54.352;9.074;2022-10-16T00:40:37;9.50;;;3.00;;
21507;SDS011;10915;54.352;9.074;2022-10-16T00:43:08;10.00;;;2.83;;
21507;SDS011;10915;54.352;9.074;2022-10-16T00:45:39;6.33;;;2.97;;
21507;SDS011;10915;54.352;9.074;2022-10-16T00:48:06;11.77;;;3.27;;
21507;SDS011;10915;54.352;9.074;2022-10-16T00:50:37;8.03;;;3.53;;
21507;SDS011;10915;54.352;9.074;2022-10-16T00:53:04;8.27;;;3.57;;
21507;SDS011;10915;54.352;9.074;2022-10-16T00:55:30;7.40;;;3.20;;
21507;SDS011;10915;54.352;9.074;2022-10-16T00:57:56;6.10;;;2.97;;
21507;SDS011;10915;54.352;9.074;2022-10-16T01:00:24;8.57;;;3.97;;
21507;SDS011;10915;54.352;9.074;2022-10-16T01:02:52;10.77;;;3.70;;
21507;SDS011;10915;54.352;9.074;2022-10-16T01:05:18;9.27;;;4.40;;
21507;SDS011;10915;54.352;9.074;2022-10-16T01:07:49;8.53;;;3.63;;
21507;SDS011;10915;54.352;9.074;2022-10-16T01:10:40;6.57;;;3.17;;
21507;SDS011;10915;54.352;9.074;2022-10-16T01:13:38;7.23;;;3.03;;
21507;SDS011;10915;54.352;9.074;2022-10-16T01:18:57;9.03;;;3.90;;
21507;SDS011;10915;54.352;9.074;2022-10-16T01:21:32;8.50;;;3.47;;
21507;SDS011;10915;54.352;9.074;2022-10-16T01:29:57;7.80;;;3.70;;
21507;SDS011;10915;54.352;9.074;2022-10-16T01:35:04;8.00;;;3.10;;
21507;SDS011;10915;54.352;9.074;2022-10-16T01:37:49;12.70;;;3.93;;
21507;SDS011;10915;54.352;9.074;2022-10-16T01:40:28;14.13;;;3.50;;
21507;SDS011;10915;54.352;9.074;2022-10-16T01:43:16;7.23;;;3.07;;
21507;SDS011;10915;54.352;9.074;2022-10-16T01:45:53;8.67;;;3.30;;
21507;SDS011;10915;54.352;9.074;2022-10-16T01:48:20;7.13;;;3.20;;
21507;SDS011;10915;54.352;9.074;2022-10-16T01:50:57;8.90;;;3.43;;
21507;SDS011;10915;54.352;9.074;2022-10-16T01:53:52;6.77;;;3.30;;
21507;SDS011;10915;54.352;9.074;2022-10-16T01:56:20;8.90;;;2.87;;
21507;SDS011;10915;54.352;9.074;2022-10-16T01:59:01;8.87;;;3.03;;
21507;SDS011;10915;54.352;9.074;2022-10-16T02:01:32;8.50;;;2.93;;
21507;SDS011;10915;54.352;9.074;2022-10-16T02:04:03;8.20;;;3.20;;
21507;SDS011;10915;54.352;9.074;2022-10-16T02:06:36;9.67;;;3.10;;
21507;SDS011;10915;54.352;9.074;2022-10-16T02:09:02;9.00;;;3.10;;
21507;SDS011;10915;54.352;9.074;2022-10-16T02:11:27;9.80;;;3.17;;
21507;SDS011;10915;54.352;9.074;2022-10-16T02:13:54;9.60;;;3.27;;
21507;SDS011;10915;54.352;9.074;2022-10-16T02:16:35;9.50;;;2.87;;
21507;SDS011;10915;54.352;9.074;2022-10-16T02:19:05;9.47;;;2.60;;
21507;SDS011;10915;54.352;9.074;2022-10-16T02:21:40;9.40;;;2.77;;
21507;SDS011;10915;54.352;9.074;2022-10-16T02:24:30;7.95;;;2.90;;
21507;SDS011;10915;54.352;9.074;2022-10-16T02:29:51;9.40;;;3.03;;
21507;SDS011;10915;54.352;9.074;2022-10-16T02:32:24;6.67;;;2.50;;
21507;SDS011;10915;54.352;9.074;2022-10-16T02:34:55;8.10;;;2.40;;
21507;SDS011;10915;54.352;9.074;2022-10-16T02:37:22;7.17;;;2.83;;
21507;SDS011;10915;54.352;9.074;2022-10-16T02:39:49;7.97;;;3.43;;
21507;SDS011;10915;54.352;9.074;2022-10-16T02:42:17;10.87;;;3.10;;
21507;SDS011;10915;54.352;9.074;2022-10-16T02:44:43;9.47;;;2.90;;
21507;SDS011;10915;54.352;9.074;2022-10-16T02:47:09;9.57;;;2.77;;
21507;SDS011;10915;54.352;9.074;2022-10-16T02:49:35;8.83;;;2.60;;
21507;SDS011;10915;54.352;9.074;2022-10-16T02:52:00;9.53;;;2.83;;
21507;SDS011;10915;54.352;9.074;2022-10-16T02:54:26;7.90;;;2.50;;
21507;SDS011;10915;54.352;9.074;2022-10-16T02:56:51;8.03;;;2.73;;
21507;SDS011;10915;54.352;9.074;2022-10-16T02:59:17;8.30;;;2.60;;
21507;SDS011;10915;54.352;9.074;2022-10-16T03:01:43;8.40;;;2.60;;
21507;SDS011;10915;54.352;9.074;2022-10-16T03:04:08;7.93;;;2.80;;
21507;SDS011;10915;54.352;9.074;2022-10-16T03:06:34;7.00;;;2.73;;
21507;SDS011;10915;54.352;9.074;2022-10-16T03:09:00;11.43;;;2.90;;
21507;SDS011;10915;54.352;9.074;2022-10-16T03:11:25;10.57;;;2.97;;
21507;SDS011;10915;54.352;9.074;2022-10-16T03:13:51;9.13;;;2.30;;
21507;SDS011;10915;54.352;9.074;2022-10-16T03:16:17;8.30;;;2.63;;
21507;SDS011;10915;54.352;9.074;2022-10-16T03:18:42;7.80;;;2.33;;
21507;SDS011;10915;54.352;9.074;2022-10-16T03:21:08;9.40;;;2.63;;
21507;SDS011;10915;54.352;9.074;2022-10-16T03:23:33;11.63;;;2.73;;
21507;SDS011;10915;54.352;9.074;2022-10-16T03:25:59;10.20;;;2.87;;
21507;SDS011;10915;54.352;9.074;2022-10-16T03:28:25;8.30;;;2.53;;
21507;SDS011;10915;54.352;9.074;2022-10-16T03:30:50;8.77;;;2.50;;
21507;SDS011;10915;54.352;9.074;2022-10-16T03:33:16;8.00;;;2.53;;
21507;SDS011;10915;54.352;9.074;2022-10-16T03:35:41;7.57;;;2.40;;
21507;SDS011;10915;54.352;9.074;2022-10-16T03:38:07;4.97;;;2.53;;
21507;SDS011;10915;54.352;9.074;2022-10-16T03:40:33;8.77;;;2.30;;
21507;SDS011;10915;54.352;9.074;2022-10-16T03:42:59;7.60;;;3.00;;
21507;SDS011;10915;54.352;9.074;2022-10-16T03:45:24;10.70;;;3.20;;
21507;SDS011;10915;54.352;9.074;2022-10-16T03:47:51;11.00;;;3.10;;
21507;SDS011;10915;54.352;9.074;2022-10-16T03:50:16;9.53;;;2.73;;
21507;SDS011;10915;54.352;9.074;2022-10-16T03:52:42;6.77;;;2.67;;
21507;SDS011;10915;54.352;9.074;2022-10-16T03:55:07;8.43;;;3.13;;
21507;SDS011;10915;54.352;9.074;2022-10-16T03:57:33;13.00;;;3.43;;
21507;SDS011;10915;54.352;9.074;2022-10-16T03:59:59;7.43;;;2.90;;
21507;SDS011;10915;54.352;9.074;2022-10-16T04:02:24;9.93;;;3.13;;
21507;SDS011;10915;54.352;9.074;2022-10-16T04:04:50;9.90;;;2.97;;
21507;SDS011;10915;54.352;9.074;2022-10-16T04:07:16;6.30;;;2.43;;
21507;SDS011;10915;54.352;9.074;2022-10-16T04:09:41;8.13;;;2.60;;
21507;SDS011;10915;54.352;9.074;2022-10-16T04:12:07;9.73;;;2.33;;
21507;SDS011;10915;54.352;9.074;2022-10-16T04:14:33;8.27;;;2.70;;
21507;SDS011;10915;54.352;9.074;2022-10-16T04:16:59;9.50;;;2.50;;
21507;SDS011;10915;54.352;9.074;2022-10-16T04:19:24;7.47;;;2.87;;
21507;SDS011;10915;54.352;9.074;2022-10-16T04:21:51;8.23;;;2.80;;
21507;SDS011;10915;54.352;9.074;2022-10-16T04:24:16;8.17;;;2.70;;
21507;SDS011;10915;54.352;9.074;2022-10-16T04:26:42;9.03;;;2.73;;
21507;SDS011;10915;54.352;9.074;2022-10-16T04:29:07;9.13;;;2.70;;
21507;SDS011;10915;54.352;9.074;2022-10-16T04:31:33;9.03;;;2.50;;
21507;SDS011;10915;54.352;9.074;2022-10-16T04:33:59;4.83;;;2.23;;
21507;SDS011;10915;54.352;9.074;2022-10-16T04:36:24;8.10;;;2.23;;
21507;SDS011;10915;54.352;9.074;2022-10-16T04:38:50;8.40;;;2.40;;
21507;SDS011;10915;54.352;9.074;2022-10-16T04:41:15;12.00;;;2.00;;
21507;SDS011;10915;54.352;9.074;2022-10-16T04:43:41;6.37;;;1.90;;
21507;SDS011;10915;54.352;9.074;2022-10-16T04:46:07;9.93;;;2.73;;
21507;SDS011;10915;54.352;9.074;2022-10-16T04:48:32;9.37;;;2.20;;
21507;SDS011;10915;54.352;9.074;2022-10-16T04:50:58;7.40;;;2.70;;
21507;SDS011;10915;54.352;9.074;2022-10-16T04:53:24;7.57;;;2.30;;
21507;SDS011;10915;54.352;9.074;2022-10-16T04:55:50;6.37;;;2.53;;
21507;SDS011;10915;54.352;9.074;2022-10-16T04:58:15;9.40;;;2.30;;
21507;SDS011;10915;54.352;9.074;2022-10-16T05:00:42;8.43;;;2.10;;
21507;SDS011;10915;54.352;9.074;2022-10-16T05:03:07;5.50;;;2.30;;
21507;SDS011;10915;54.352;9.074;2022-10-16T05:05:34;8.03;;;2.40;;
21507;SDS011;10915;54.352;9.074;2022-10-16T05:08:00;5.87;;;2.50;;
21507;SDS011;10915;54.352;9.074;2022-10-16T05:10:26;5.73;;;2.50;;
21507;SDS011;10915;54.352;9.074;2022-10-16T05:12:52;6.63;;;2.67;;
21507;SDS011;10915;54.352;9.074;2022-10-16T05:15:17;6.40;;;2.77;;
21507;SDS011;10915;54.352;9.074;2022-10-16T05:17:43;7.33;;;2.33;;
21507;SDS011;10915;54.352;9.074;2022-10-16T05:20:09;9.70;;;2.43;;
21507;SDS011;10915;54.352;9.074;2022-10-16T05:22:35;4.90;;;2.17;;
21507;SDS011;10915;54.352;9.074;2022-10-16T05:25:00;10.00;;;2.40;;
21507;SDS011;10915;54.352;9.074;2022-10-16T05:27:26;5.07;;;2.10;;
21507;SDS011;10915;54.352;9.074;2022-10-16T05:29:52;7.87;;;2.30;;
21507;SDS011;10915;54.352;9.074;2022-10-16T05:32:17;8.13;;;2.30;;
21507;SDS011;10915;54.352;9.074;2022-10-16T05:34:44;4.50;;;2.00;;
21507;SDS011;10915;54.352;9.074;2022-10-16T05:37:10;6.97;;;2.23;;
21507;SDS011;10915;54.352;9.074;2022-10-16T05:39:36;8.20;;;1.80;;
21507;SDS011;10915;54.352;9.074;2022-10-16T05:42:03;6.90;;;1.90;;
21507;SDS011;10915;54.352;9.074;2022-10-16T05:44:29;8.43;;;2.40;;
21507;SDS011;10915;54.352;9.074;2022-10-16T05:46:55;7.30;;;2.17;;
21507;SDS011;10915;54.352;9.074;2022-10-16T05:49:20;7.33;;;1.80;;
21507;SDS011;10915;54.352;9.074;2022-10-16T05:51:46;6.27;;;1.57;;
21507;SDS011;10915;54.352;9.074;2022-10-16T05:54:12;8.00;;;1.97;;
21507;SDS011;10915;54.352;9.074;2022-10-16T05:56:37;6.00;;;1.80;;
21507;SDS011;10915;54.352;9.074;2022-10-16T05:59:04;6.10;;;1.77;;
21507;SDS011;10915;54.352;9.074;2022-10-16T06:01:30;6.73;;;2.03;;
21507;SDS011;10915;54.352;9.074;2022-10-16T06:03:57;4.20;;;1.70;;
21507;SDS011;10915;54.352;9.074;2022-10-16T06:06:24;5.67;;;1.60;;
21507;SDS011;10915;54.352;9.074;2022-10-16T06:08:51;4.83;;;1.80;;
21507;SDS011;10915;54.352;9.074;2022-10-16T06:11:22;6.83;;;1.50;;
21507;SDS011;10915;54.352;9.074;2022-10-16T06:13:50;6.13;;;2.20;;
21507;SDS011;10915;54.352;9.074;2022-10-16T06:16:21;6.90;;;1.67;;
21507;SDS011;10915;54.352;9.074;2022-10-16T06:18:47;7.60;;;1.90;;
21507;SDS011;10915;54.352;9.074;2022-10-16T06:21:19;3.67;;;1.47;;
21507;SDS011;10915;54.352;9.074;2022-10-16T06:23:46;4.63;;;1.50;;
21507;SDS011;10915;54.352;9.074;2022-10-16T06:26:17;2.47;;;1.50;;
21507;SDS011;10915;54.352;9.074;2022-10-16T06:28:45;8.57;;;1.53;;
21507;SDS011;10915;54.352;9.074;2022-10-16T06:31:11;5.33;;;1.90;;
21507;SDS011;10915;54.352;9.074;2022-10-16T06:33:37;3.73;;;1.50;;
21507;SDS011;10915;54.352;9.074;2022-10-16T06:36:04;3.77;;;1.57;;
21507;SDS011;10915;54.352;9.074;2022-10-16T06:38:33;8.77;;;2.23;;
21507;SDS011;10915;54.352;9.074;2022-10-16T06:40:59;3.97;;;1.70;;
21507;SDS011;10915;54.352;9.074;2022-10-16T06:43:25;3.37;;;1.60;;
21507;SDS011;10915;54.352;9.074;2022-10-16T06:45:54;4.13;;;1.57;;
21507;SDS011;10915;54.352;9.074;2022-10-16T06:48:20;3.77;;;1.60;;
21507;SDS011;10915;54.352;9.074;2022-10-16T06:50:59;4.37;;;1.70;;
21507;SDS011;10915;54.352;9.074;2022-10-16T06:53:29;5.27;;;1.90;;
21507;SDS011;10915;54.352;9.074;2022-10-16T06:55:56;6.10;;;1.57;;
21507;SDS011;10915;54.352;9.074;2022-10-16T06:58:23;4.33;;;1.67;;
21507;SDS011;10915;54.352;9.074;2022-10-16T07:00:49;5.47;;;1.77;;
21507;SDS011;10915;54.352;9.074;2022-10-16T07:03:19;5.50;;;1.50;;
21507;SDS011;10915;54.352;9.074;2022-10-16T07:05:45;5.70;;;1.67;;
21507;SDS011;10915;54.352;9.074;2022-10-16T07:08:10;7.40;;;1.93;;
21507;SDS011;10915;54.352;9.074;2022-10-16T07:10:36;4.57;;;1.57;;
21507;SDS011;10915;54.352;9.074;2022-10-16T07:13:02;5.03;;;1.87;;
21507;SDS011;10915;54.352;9.074;2022-10-16T07:15:27;3.37;;;1.60;;
21507;SDS011;10915;54.352;9.074;2022-10-16T07:17:53;8.50;;;2.07;;
21507;SDS011;10915;54.352;9.074;2022-10-16T07:20:19;4.87;;;1.73;;
21507;SDS011;10915;54.352;9.074;2022-10-16T07:22:45;6.20;;;1.80;;
21507;SDS011;10915;54.352;9.074;2022-10-16T07:25:10;4.63;;;1.50;;
21507;SDS011;10915;54.352;9.074;2022-10-16T07:27:36;6.17;;;1.90;;
21507;SDS011;10915;54.352;9.074;2022-10-16T07:30:02;6.10;;;1.60;;
21507;SDS011;10915;54.352;9.074;2022-10-16T07:32:28;4.00;;;1.63;;
21507;SDS011;10915;54.352;9.074;2022-10-16T07:34:54;5.00;;;1.93;;
21507;SDS011;10915;54.352;9.074;2022-10-16T07:37:20;5.27;;;2.30;;
21507;SDS011;10915;54.352;9.074;2022-10-16T07:39:46;4.97;;;1.87;;
21507;SDS011;10915;54.352;9.074;2022-10-16T07:42:12;4.77;;;1.50;;
21507;SDS011;10915;54.352;9.074;2022-10-16T07:44:38;6.13;;;2.03;;
21507;SDS011;10915;54.352;9.074;2022-10-16T07:47:04;4.67;;;1.87;;
21507;SDS011;10915;54.352;9.074;2022-10-16T07:49:30;3.23;;;1.30;;
21507;SDS011;10915;54.352;9.074;2022-10-16T07:51:56;7.10;;;3.20;;
21507;SDS011;10915;54.352;9.074;2022-10-16T07:54:21;6.33;;;2.30;;
21507;SDS011;10915;54.352;9.074;2022-10-16T07:56:47;8.20;;;3.00;;
21507;SDS011;10915;54.352;9.074;2022-10-16T07:59:13;6.60;;;1.90;;
21507;SDS011;10915;54.352;9.074;2022-10-16T08:01:38;7.53;;;1.93;;
21507;SDS011;10915;54.352;9.074;2022-10-16T08:04:04;5.97;;;1.87;;
21507;SDS011;10915;54.352;9.074;2022-10-16T08:06:30;6.57;;;2.10;;
21507;SDS011;10915;54.352;9.074;2022-10-16T08:09:01;5.77;;;1.70;;
21507;SDS011;10915;54.352;9.074;2022-10-16T08:11:28;4.97;;;1.50;;
21507;SDS011;10915;54.352;9.074;2022-10-16T08:13:53;5.40;;;1.87;;
21507;SDS011;10915;54.352;9.074;2022-10-16T08:16:19;6.70;;;2.13;;
21507;SDS011;10915;54.352;9.074;2022-10-16T08:18:45;6.43;;;1.70;;
21507;SDS011;10915;54.352;9.074;2022-10-16T08:21:12;8.37;;;1.90;;
21507;SDS011;10915;54.352;9.074;2022-10-16T08:23:39;7.37;;;2.33;;
21507;SDS011;10915;54.352;9.074;2022-10-16T08:26:05;7.70;;;2.03;;
21507;SDS011;10915;54.352;9.074;2022-10-16T08:28:32;6.47;;;1.83;;
21507;SDS011;10915;54.352;9.074;2022-10-16T08:31:05;5.30;;;2.07;;
21507;SDS011;10915;54.352;9.074;2022-10-16T08:33:35;5.53;;;1.97;;
21507;SDS011;10915;54.352;9.074;2022-10-16T08:36:02;7.03;;;2.00;;
21507;SDS011;10915;54.352;9.074;2022-10-16T08:38:29;7.70;;;2.20;;
21507;SDS011;10915;54.352;9.074;2022-10-16T08:46:47;7.03;;;2.23;;
21507;SDS011;10915;54.352;9.074;2022-10-16T08:49:25;8.20;;;2.97;;
21507;SDS011;10915;54.352;9.074;2022-10-16T08:51:52;7.83;;;2.70;;
21507;SDS011;10915;54.352;9.074;2022-10-16T08:54:22;8.93;;;2.50;;
21507;SDS011;10915;54.352;9.074;2022-10-16T08:56:53;9.80;;;3.83;;
21507;SDS011;10915;54.352;9.074;2022-10-16T08:59:20;10.03;;;3.17;;
21507;SDS011;10915;54.352;9.074;2022-10-16T09:01:46;6.67;;;2.90;;
21507;SDS011;10915;54.352;9.074;2022-10-16T09:06:52;6.83;;;2.50;;
21507;SDS011;10915;54.352;9.074;2022-10-16T09:11:51;8.20;;;2.20;;
21507;SDS011;10915;54.352;9.074;2022-10-16T09:14:37;5.93;;;2.50;;
21507;SDS011;10915;54.352;9.074;2022-10-16T09:17:33;6.37;;;2.63;;
21507;SDS011;10915;54.352;9.074;2022-10-16T09:25:28;7.77;;;2.67;;
21507;SDS011;10915;54.352;9.074;2022-10-16T09:27:54;7.57;;;3.00;;
21507;SDS011;10915;54.352;9.074;2022-10-16T09:30:21;7.00;;;3.20;;
21507;SDS011;10915;54.352;9.074;2022-10-16T09:32:48;9.63;;;3.88;;
21507;SDS011;10915;54.352;9.074;2022-10-16T09:35:17;7.70;;;2.93;;
21507;SDS011;10915;54.352;9.074;2022-10-16T09:37:45;8.70;;;3.40;;
21507;SDS011;10915;54.352;9.074;2022-10-16T09:40:36;10.20;;;3.25;;
21507;SDS011;10915;54.352;9.074;2022-10-16T09:45:31;8.47;;;2.90;;
21507;SDS011;10915;54.352;9.074;2022-10-16T09:47:57;12.00;;;2.97;;
21507;SDS011;10915;54.352;9.074;2022-10-16T09:50:27;6.10;;;2.37;;
21507;SDS011;10915;54.352;9.074;2022-10-16T09:53:08;8.57;;;2.53;;
21507;SDS011;10915;54.352;9.074;2022-10-16T09:55:47;6.27;;;2.90;;
21507;SDS011;10915;54.352;9.074;2022-10-16T09:58:14;7.60;;;2.70;;
21507;SDS011;10915;54.352;9.074;2022-10-16T10:00:39;8.23;;;2.67;;
21507;SDS011;10915;54.352;9.074;2022-10-16T10:03:10;7.93;;;2.70;;
21507;SDS011;10915;54.352;9.074;2022-10-16T10:05:37;6.17;;;2.40;;
21507;SDS011;10915;54.352;9.074;2022-10-16T10:08:05;10.67;;;2.60;;
21507;SDS011;10915;54.352;9.074;2022-10-16T10:10:34;7.63;;;2.50;;
21507;SDS011;10915;54.352;9.074;2022-10-16T10:13:14;5.90;;;2.33;;
21507;SDS011;10915;54.352;9.074;2022-10-16T10:15:45;11.60;;;2.93;;
21507;SDS011;10915;54.352;9.074;2022-10-16T10:18:16;6.97;;;2.80;;
21507;SDS011;10915;54.352;9.074;2022-10-16T10:20:44;7.73;;;2.53;;
21507;SDS011;10915;54.352;9.074;2022-10-16T10:23:20;9.20;;;2.77;;
21507;SDS011;10915;54.352;9.074;2022-10-16T10:31:20;7.87;;;1.90;;
21507;SDS011;10915;54.352;9.074;2022-10-16T10:36:40;12.07;;;2.70;;
21507;SDS011;10915;54.352;9.074;2022-10-16T10:50:07;10.80;;;2.30;;
21507;SDS011;10915;54.352;9.074;2022-10-16T10:52:57;6.65;;;2.13;;
21507;SDS011;10915;54.352;9.074;2022-10-16T11:01:07;11.15;;;2.67;;
21507;SDS011;10915;54.352;9.074;2022-10-16T11:06:35;6.90;;;1.97;;
21507;SDS011;10915;54.352;9.074;2022-10-16T11:11:40;10.20;;;2.10;;
21507;SDS011;10915;54.352;9.074;2022-10-16T11:27:44;10.10;;;2.00;;
21507;SDS011;10915;54.352;9.074;2022-10-16T11:30:30;7.43;;;1.67;;
21507;SDS011;10915;54.352;9.074;2022-10-16T11:35:43;11.18;;;2.53;;
21507;SDS011;10915;54.352;9.074;2022-10-16T11:40:50;15.07;;;2.70;;
21507;SDS011;10915;54.352;9.074;2022-10-16T11:43:24;9.73;;;2.57;;
21507;SDS011;10915;54.352;9.074;2022-10-16T11:45:57;12.00;;;2.57;;
21507;SDS011;10915;54.352;9.074;2022-10-16T11:48:33;14.37;;;2.70;;
21507;SDS011;10915;54.352;9.074;2022-10-16T11:51:13;7.73;;;2.23;;
21507;SDS011;10915;54.352;9.074;2022-10-16T11:56:48;12.67;;;2.90;;
21507;SDS011;10915;54.352;9.074;2022-10-16T11:59:20;13.82;;;2.78;;
21507;SDS011;10915;54.352;9.074;2022-10-16T12:01:49;10.57;;;2.90;;
21507;SDS011;10915;54.352;9.074;2022-10-16T12:07:11;11.80;;;2.57;;
21507;SDS011;10915;54.352;9.074;2022-10-16T12:09:42;11.23;;;2.60;;
21507;SDS011;10915;54.352;9.074;2022-10-16T12:12:37;13.23;;;2.73;;
21507;SDS011;10915;54.352;9.074;2022-10-16T12:17:58;9.53;;;2.60;;
21507;SDS011;10915;54.352;9.074;2022-10-16T12:20:31;13.00;;;3.10;;
21507;SDS011;10915;54.352;9.074;2022-10-16T12:22:59;11.27;;;2.55;;
21507;SDS011;10915;54.352;9.074;2022-10-16T12:27:55;13.23;;;2.97;;
21507;SDS011;10915;54.352;9.074;2022-10-16T12:30:22;12.63;;;3.07;;
21507;SDS011;10915;54.352;9.074;2022-10-16T12:33:05;11.57;;;3.03;;
21507;SDS011;10915;54.352;9.074;2022-10-16T12:35:44;14.70;;;2.70;;
21507;SDS011;10915;54.352;9.074;2022-10-16T12:38:26;13.97;;;3.10;;
21507;SDS011;10915;54.352;9.074;2022-10-16T12:41:07;17.30;;;3.70;;
21507;SDS011;10915;54.352;9.074;2022-10-16T12:48:34;15.30;;;3.13;;
21507;SDS011;10915;54.352;9.074;2022-10-16T12:53:46;13.80;;;3.40;;
21507;SDS011;10915;54.352;9.074;2022-10-16T12:56:24;14.73;;;2.90;;
21507;SDS011;10915;54.352;9.074;2022-10-16T13:10:11;16.87;;;2.83;;
21507;SDS011;10915;54.352;9.074;2022-10-16T13:12:49;15.97;;;3.87;;
21507;SDS011;10915;54.352;9.074;2022-10-16T13:15:28;12.73;;;3.40;;
21507;SDS011;10915;54.352;9.074;2022-10-16T13:18:18;12.47;;;2.90;;
21507;SDS011;10915;54.352;9.074;2022-10-16T13:23:38;11.90;;;3.10;;
21507;SDS011;10915;54.352;9.074;2022-10-16T13:28:49;14.10;;;3.23;;
21507;SDS011;10915;54.352;9.074;2022-10-16T13:31:22;15.50;;;3.13;;
21507;SDS011;10915;54.352;9.074;2022-10-16T13:33:56;20.87;;;3.40;;
21507;SDS011;10915;54.352;9.074;2022-10-16T13:36:33;10.93;;;2.87;;
21507;SDS011;10915;54.352;9.074;2022-10-16T13:41:41;17.77;;;3.90;;
21507;SDS011;10915;54.352;9.074;2022-10-16T13:44:12;17.80;;;3.27;;
21507;SDS011;10915;54.352;9.074;2022-10-16T13:46:42;11.90;;;3.50;;
21507;SDS011;10915;54.352;9.074;2022-10-16T13:49:15;16.37;;;3.60;;
21507;SDS011;10915;54.352;9.074;2022-10-16T13:51:53;16.67;;;3.67;;
21507;SDS011;10915;54.352;9.074;2022-10-16T13:54:20;15.67;;;3.40;;
21507;SDS011;10915;54.352;9.074;2022-10-16T13:56:46;22.63;;;3.57;;
21507;SDS011;10915;54.352;9.074;2022-10-16T13:59:25;24.73;;;4.77;;
21507;SDS011;10915;54.352;9.074;2022-10-16T14:01:53;18.63;;;4.30;;
21507;SDS011;10915;54.352;9.074;2022-10-16T14:04:22;18.40;;;4.47;;
21507;SDS011;10915;54.352;9.074;2022-10-16T14:06:50;18.37;;;3.97;;
21507;SDS011;10915;54.352;9.074;2022-10-16T14:11:48;17.50;;;4.07;;
21507;SDS011;10915;54.352;9.074;2022-10-16T14:14:18;19.37;;;3.87;;
21507;SDS011;10915;54.352;9.074;2022-10-16T14:16:44;18.80;;;4.33;;
21507;SDS011;10915;54.352;9.074;2022-10-16T14:19:25;18.80;;;4.13;;
21507;SDS011;10915;54.352;9.074;2022-10-16T14:21:52;16.20;;;3.33;;
21507;SDS011;10915;54.352;9.074;2022-10-16T14:24:31;15.57;;;3.67;;
21507;SDS011;10915;54.352;9.074;2022-10-16T14:26:59;17.87;;;3.47;;
21507;SDS011;10915;54.352;9.074;2022-10-16T14:29:26;18.80;;;3.63;;
21507;SDS011;10915;54.352;9.074;2022-10-16T14:34:30;18.40;;;3.90;;
21507;SDS011;10915;54.352;9.074;2022-10-16T14:36:59;17.30;;;4.17;;
21507;SDS011;10915;54.352;9.074;2022-10-16T14:39:31;18.53;;;3.80;;
21507;SDS011;10915;54.352;9.074;2022-10-16T14:41:57;14.60;;;3.80;;
21507;SDS011;10915;54.352;9.074;2022-10-16T14:44:27;15.03;;;3.90;;
21507;SDS011;10915;54.352;9.074;2022-10-16T14:46:56;15.10;;;3.80;;
21507;SDS011;10915;54.352;9.074;2022-10-16T14:49:22;16.83;;;3.90;;
21507;SDS011;10915;54.352;9.074;2022-10-16T14:51:49;17.45;;;3.70;;
21507;SDS011;10915;54.352;9.074;2022-10-16T14:54:16;13.33;;;4.03;;
21507;SDS011;10915;54.352;9.074;2022-10-16T14:56:47;11.43;;;3.13;;
21507;SDS011;10915;54.352;9.074;2022-10-16T15:01:55;13.47;;;3.00;;
21507;SDS011;10915;54.352;9.074;2022-10-16T15:04:21;12.63;;;3.05;;
21507;SDS011;10915;54.352;9.074;2022-10-16T15:06:46;11.17;;;2.73;;
21507;SDS011;10915;54.352;9.074;2022-10-16T15:09:12;15.27;;;3.27;;
21507;SDS011;10915;54.352;9.074;2022-10-16T15:11:38;11.63;;;3.27;;
21507;SDS011;10915;54.352;9.074;2022-10-16T15:14:04;14.67;;;3.07;;
21507;SDS011;10915;54.352;9.074;2022-10-16T15:16:30;16.40;;;3.80;;
21507;SDS011;10915;54.352;9.074;2022-10-16T15:18:56;18.33;;;3.33;;
21507;SDS011;10915;54.352;9.074;2022-10-16T15:21:24;15.73;;;3.23;;
21507;SDS011;10915;54.352;9.074;2022-10-16T15:23:55;14.35;;;3.33;;
21507;SDS011;10915;54.352;9.074;2022-10-16T15:26:22;13.97;;;3.10;;
21507;SDS011;10915;54.352;9.074;2022-10-16T15:28:49;14.10;;;3.47;;
21507;SDS011;10915;54.352;9.074;2022-10-16T15:31:15;13.73;;;2.90;;
21507;SDS011;10915;54.352;9.074;2022-10-16T15:33:43;11.93;;;3.10;;
21507;SDS011;10915;54.352;9.074;2022-10-16T15:36:12;14.63;;;3.60;;
21507;SDS011;10915;54.352;9.074;2022-10-16T15:38:38;14.57;;;3.73;;
21507;SDS011;10915;54.352;9.074;2022-10-16T15:41:04;18.83;;;3.93;;
21507;SDS011;10915;54.352;9.074;2022-10-16T15:43:33;18.47;;;3.87;;
21507;SDS011;10915;54.352;9.074;2022-10-16T15:46:05;11.97;;;2.80;;
21507;SDS011;10915;54.352;9.074;2022-10-16T15:48:39;13.37;;;3.43;;
21507;SDS011;10915;54.352;9.074;2022-10-16T15:51:05;16.50;;;3.47;;
21507;SDS011;10915;54.352;9.074;2022-10-16T15:53:32;11.70;;;3.23;;
21507;SDS011;10915;54.352;9.074;2022-10-16T15:56:01;14.57;;;3.20;;
21507;SDS011;10915;54.352;9.074;2022-10-16T15:58:30;13.27;;;3.27;;
21507;SDS011;10915;54.352;9.074;2022-10-16T16:00:56;13.83;;;2.93;;
21507;SDS011;10915;54.352;9.074;2022-10-16T16:03:25;14.50;;;3.63;;
21507;SDS011;10915;54.352;9.074;2022-10-16T16:05:52;14.47;;;3.40;;
21507;SDS011;10915;54.352;9.074;2022-10-16T16:08:17;12.57;;;2.70;;
21507;SDS011;10915;54.352;9.074;2022-10-16T16:10:43;15.00;;;3.47;;
21507;SDS011;10915;54.352;9.074;2022-10-16T16:13:09;18.03;;;3.33;;
21507;SDS011;10915;54.352;9.074;2022-10-16T16:15:38;22.90;;;4.27;;
21507;SDS011;10915;54.352;9.074;2022-10-16T16:18:04;15.13;;;3.27;;
21507;SDS011;10915;54.352;9.074;2022-10-16T16:20:30;18.87;;;3.60;;
21507;SDS011;10915;54.352;9.074;2022-10-16T16:22:56;15.90;;;3.60;;
21507;SDS011;10915;54.352;9.074;2022-10-16T16:25:22;15.07;;;3.13;;
21507;SDS011;10915;54.352;9.074;2022-10-16T16:27:48;13.87;;;3.43;;
21507;SDS011;10915;54.352;9.074;2022-10-16T16:30:13;15.83;;;3.97;;
21507;SDS011;10915;54.352;9.074;2022-10-16T16:32:39;17.53;;;3.40;;
21507;SDS011;10915;54.352;9.074;2022-10-16T16:35:05;11.50;;;2.80;;
21507;SDS011;10915;54.352;9.074;2022-10-16T16:37:31;17.03;;;3.50;;
21507;SDS011;10915;54.352;9.074;2022-10-16T16:39:57;19.27;;;3.17;;
21507;SDS011;10915;54.352;9.074;2022-10-16T16:42:25;13.10;;;2.87;;
21507;SDS011;10915;54.352;9.074;2022-10-16T16:44:52;15.77;;;3.10;;
21507;SDS011;10915;54.352;9.074;2022-10-16T16:47:18;12.97;;;2.63;;
21507;SDS011;10915;54.352;9.074;2022-10-16T16:49:44;15.90;;;3.70;;
21507;SDS011;10915;54.352;9.074;2022-10-16T16:52:11;14.57;;;3.43;;
21507;SDS011;10915;54.352;9.074;2022-10-16T16:54:37;19.30;;;3.60;;
21507;SDS011;10915;54.352;9.074;2022-10-16T16:57:03;15.07;;;3.33;;
21507;SDS011;10915;54.352;9.074;2022-10-16T16:59:29;14.70;;;3.87;;
21507;SDS011;10915;54.352;9.074;2022-10-16T17:01:57;19.87;;;4.07;;
21507;SDS011;10915;54.352;9.074;2022-10-16T17:04:24;16.00;;;3.87;;